createdAt,value
2018-12-15T00:02:25.856Z,3.80
2018-12-15T00:04:54.039Z,3.80
2018-12-15T00:07:22.185Z,3.90
2018-12-15T00:09:54.633Z,3.80
2018-12-15T00:12:23.859Z,3.70
2018-12-15T00:14:53.045Z,4.10
2018-12-15T00:17:27.068Z,4.20
2018-12-15T00:19:55.299Z,4.00
2018-12-15T00:22:24.536Z,3.90
2018-12-15T00:24:52.730Z,4.00
2018-12-15T00:27:20.921Z,4.30
2018-12-15T00:29:50.069Z,4.20
2018-12-15T00:32:19.290Z,4.20
2018-12-15T00:34:48.851Z,3.90
2018-12-15T00:37:18.118Z,3.80
2018-12-15T00:39:46.371Z,3.70
2018-12-15T00:42:14.549Z,3.80
2018-12-15T00:44:42.741Z,3.70
2018-12-15T00:47:13.884Z,3.80
2018-12-15T00:49:39.706Z,3.70
2018-12-15T00:52:07.988Z,3.80
2018-12-15T00:54:36.216Z,4.00
2018-12-15T00:57:04.384Z,3.80
2018-12-15T00:59:32.667Z,3.70
2018-12-15T01:02:00.840Z,3.70
2018-12-15T01:04:28.999Z,3.80
2018-12-15T01:06:57.505Z,3.90
2018-12-15T01:09:25.671Z,3.90
2018-12-15T01:11:53.851Z,3.80
2018-12-15T01:14:23.103Z,3.70
2018-12-15T01:16:53.256Z,3.70
2018-12-15T01:19:21.497Z,3.70
2018-12-15T01:21:49.593Z,3.60
2018-12-15T01:24:17.776Z,3.80
2018-12-15T01:26:46.220Z,4.00
2018-12-15T01:29:14.427Z,3.90
2018-12-15T01:31:44.005Z,3.70
2018-12-15T01:34:13.287Z,3.70
2018-12-15T01:36:41.494Z,3.90
2018-12-15T01:39:10.033Z,3.90
2018-12-15T01:41:38.273Z,3.90
2018-12-15T01:44:07.836Z,4.00
2018-12-15T01:46:56.608Z,4.20
2018-12-15T01:49:24.827Z,4.00
2018-12-15T01:51:58.141Z,4.00
2018-12-15T01:54:26.187Z,3.70
2018-12-15T01:56:54.335Z,3.60
2018-12-15T01:59:22.524Z,3.40
2018-12-15T02:01:50.698Z,3.40
2018-12-15T02:04:19.233Z,3.40
2018-12-15T02:06:47.352Z,3.60
2018-12-15T02:09:16.603Z,3.70
2018-12-15T02:11:45.245Z,3.70
2018-12-15T02:14:13.427Z,3.70
2018-12-15T02:16:41.596Z,3.80
2018-12-15T02:19:09.750Z,3.80
2018-12-15T02:21:38.594Z,3.80
2018-12-15T02:24:06.788Z,4.00
2018-12-15T02:26:35.365Z,3.90
2018-12-15T02:29:04.561Z,3.90
2018-12-15T02:31:32.748Z,3.90
2018-12-15T02:34:00.942Z,3.90
2018-12-15T02:36:29.110Z,3.90
2018-12-15T02:38:57.261Z,3.80
2018-12-15T02:41:25.467Z,3.90
2018-12-15T02:43:53.657Z,3.80
2018-12-15T02:46:22.814Z,3.70
2018-12-15T02:48:51.997Z,3.50
2018-12-15T02:51:22.142Z,3.60
2018-12-15T02:53:50.304Z,3.90
2018-12-15T02:56:18.502Z,3.80
2018-12-15T02:58:46.651Z,4.10
2018-12-15T03:01:14.855Z,3.80
2018-12-15T03:03:43.023Z,3.70
2018-12-15T03:06:11.600Z,3.60
2018-12-15T03:08:39.760Z,3.70
2018-12-15T03:11:07.983Z,3.70
2018-12-15T03:13:36.111Z,3.60
2018-12-15T03:16:05.237Z,3.90
2018-12-15T03:18:33.717Z,3.80
2018-12-15T03:21:02.318Z,4.00
2018-12-15T03:23:30.454Z,4.00
2018-12-15T03:25:58.682Z,3.90
2018-12-15T03:28:26.910Z,3.70
2018-12-15T03:30:56.079Z,3.90
2018-12-15T03:33:28.279Z,3.80
2018-12-15T03:35:56.469Z,3.90
2018-12-15T03:38:27.685Z,4.20
2018-12-15T03:40:55.857Z,4.10
2018-12-15T03:43:24.036Z,3.90
2018-12-15T03:45:52.286Z,4.10
2018-12-15T03:48:20.536Z,4.00
2018-12-15T03:50:50.960Z,3.90
2018-12-15T03:53:19.546Z,3.90
2018-12-15T03:55:48.771Z,3.70
2018-12-15T03:58:17.026Z,3.90
2018-12-15T04:00:45.461Z,3.70
2018-12-15T04:03:13.615Z,3.70
2018-12-15T04:05:42.195Z,3.50
2018-12-15T04:08:10.377Z,3.70
2018-12-15T04:10:38.789Z,3.80
2018-12-15T04:13:07.958Z,3.90
2018-12-15T04:15:55.517Z,3.70
2018-12-15T04:18:23.758Z,3.70
2018-12-15T04:20:52.966Z,3.70
2018-12-15T04:23:21.154Z,3.70
2018-12-15T04:25:49.376Z,3.50
2018-12-15T04:28:18.591Z,3.60
2018-12-15T04:30:46.754Z,3.50
2018-12-15T04:33:14.976Z,3.40
2018-12-15T04:35:43.099Z,3.30
2018-12-15T04:38:11.375Z,3.50
2018-12-15T04:40:39.544Z,3.70
2018-12-15T04:43:07.737Z,3.70
2018-12-15T04:45:37.262Z,3.60
2018-12-15T04:48:10.981Z,3.60
2018-12-15T04:50:34.157Z,3.80
2018-12-15T04:53:02.356Z,3.70
2018-12-15T04:55:31.616Z,3.60
2018-12-15T04:57:59.913Z,3.70
2018-12-15T05:00:28.135Z,3.60
2018-12-15T05:02:56.289Z,3.60
2018-12-15T05:05:43.890Z,3.70
2018-12-15T05:08:12.090Z,3.60
2018-12-15T05:10:40.651Z,3.70
2018-12-15T05:13:08.848Z,3.60
2018-12-15T05:15:37.022Z,3.60
2018-12-15T05:18:06.200Z,3.60
2018-12-15T05:20:34.803Z,3.60
2018-12-15T05:23:03.059Z,3.50
2018-12-15T05:25:31.237Z,3.50
2018-12-15T05:28:04.496Z,3.60
2018-12-15T05:30:33.380Z,3.60
2018-12-15T05:33:01.602Z,3.60
2018-12-15T05:35:30.153Z,3.60
2018-12-15T05:37:58.408Z,3.50
2018-12-15T05:40:26.857Z,3.50
2018-12-15T05:42:56.939Z,3.50
2018-12-15T05:45:25.147Z,3.50
2018-12-15T05:47:53.311Z,3.70
2018-12-15T05:50:21.524Z,3.70
2018-12-15T05:52:49.776Z,3.70
2018-12-15T05:55:17.947Z,3.70
2018-12-15T05:57:46.195Z,3.80
2018-12-15T06:00:14.406Z,3.70
2018-12-15T06:02:43.594Z,3.60
2018-12-15T06:05:11.932Z,3.60
2018-12-15T06:07:40.143Z,3.70
2018-12-15T06:10:08.315Z,3.80
2018-12-15T06:12:36.478Z,3.70
2018-12-15T06:15:10.374Z,3.70
2018-12-15T06:17:38.546Z,3.50
2018-12-15T06:20:08.525Z,3.50
2018-12-15T06:22:36.753Z,3.60
2018-12-15T06:25:06.129Z,3.70
2018-12-15T06:27:36.166Z,3.70
2018-12-15T06:30:05.561Z,3.70
2018-12-15T06:32:34.015Z,3.50
2018-12-15T06:35:02.225Z,3.90
2018-12-15T06:37:35.721Z,3.80
2018-12-15T06:40:06.358Z,3.60
2018-12-15T06:42:35.183Z,3.60
2018-12-15T06:45:06.287Z,3.60
2018-12-15T06:47:38.389Z,3.50
2018-12-15T06:50:06.554Z,3.30
2018-12-15T06:52:34.721Z,3.20
2018-12-15T06:55:03.141Z,3.40
2018-12-15T06:57:31.389Z,3.30
2018-12-15T06:59:59.904Z,3.70
2018-12-15T07:02:29.192Z,3.80
2018-12-15T07:04:57.422Z,3.70
2018-12-15T07:07:25.629Z,3.60
2018-12-15T07:09:53.843Z,3.50
2018-12-15T07:12:22.038Z,3.40
2018-12-15T07:14:50.202Z,3.50
2018-12-15T07:17:18.413Z,3.70
2018-12-15T07:19:48.701Z,3.80
2018-12-15T07:22:16.884Z,3.80
2018-12-15T07:24:45.046Z,3.70
2018-12-15T07:27:13.236Z,3.80
2018-12-15T07:29:42.249Z,3.80
2018-12-15T07:32:10.494Z,3.70
2018-12-15T07:34:39.621Z,3.60
2018-12-15T07:37:08.817Z,3.60
2018-12-15T07:39:51.050Z,3.50
2018-12-15T07:42:27.296Z,3.60
2018-12-15T07:44:57.887Z,3.60
2018-12-15T07:47:27.056Z,3.30
2018-12-15T07:49:55.244Z,3.40
2018-12-15T07:52:23.445Z,3.40
2018-12-15T07:57:45.619Z,3.50
2018-12-15T08:00:13.889Z,3.50
2018-12-15T08:02:42.058Z,3.50
2018-12-15T08:05:11.220Z,3.60
2018-12-15T08:07:39.393Z,3.60
2018-12-15T08:10:07.867Z,3.70
2018-12-15T08:12:50.217Z,3.70
2018-12-15T08:15:18.355Z,3.60
2018-12-15T08:17:48.551Z,3.60
2018-12-15T08:20:18.047Z,3.80
2018-12-15T08:22:46.238Z,3.70
2018-12-15T08:25:16.512Z,3.70
2018-12-15T08:27:46.974Z,3.80
2018-12-15T08:30:16.305Z,3.90
2018-12-15T08:33:07.925Z,3.80
2018-12-15T08:35:36.451Z,3.80
2018-12-15T08:38:07.402Z,3.70
2018-12-15T08:40:40.947Z,3.60
2018-12-15T08:43:27.475Z,3.70
2018-12-15T08:46:15.623Z,3.60
2018-12-15T08:49:04.754Z,3.40
2018-12-15T08:51:31.014Z,3.60
2018-12-15T08:53:59.535Z,3.60
2018-12-15T08:56:27.813Z,3.80
2018-12-15T08:58:56.030Z,3.80
2018-12-15T09:01:24.256Z,4.00
2018-12-15T09:03:52.454Z,4.00
2018-12-15T09:06:21.741Z,4.00
2018-12-15T09:08:49.940Z,3.90
2018-12-15T09:11:18.152Z,4.00
2018-12-15T09:13:46.733Z,3.90
2018-12-15T09:16:14.965Z,4.00
2018-12-15T09:18:43.113Z,4.00
2018-12-15T09:21:34.220Z,3.90
2018-12-15T09:24:03.457Z,3.90
2018-12-15T09:26:31.659Z,4.00
2018-12-15T09:29:00.199Z,4.10
2018-12-15T09:31:28.654Z,4.20
2018-12-15T09:33:58.178Z,4.00
2018-12-15T09:36:26.678Z,4.00
2018-12-15T09:38:56.143Z,4.00
2018-12-15T09:41:25.364Z,4.10
2018-12-15T09:43:53.705Z,4.10
2018-12-15T09:46:23.874Z,4.10
2018-12-15T09:48:52.038Z,4.30
2018-12-15T09:51:21.241Z,4.10
2018-12-15T09:53:52.783Z,4.00
2018-12-15T09:56:23.538Z,3.90
2018-12-15T09:58:54.655Z,3.90
2018-12-15T10:01:24.994Z,3.80
2018-12-15T10:03:53.210Z,3.70
2018-12-15T10:06:21.478Z,3.50
2018-12-15T10:08:53.719Z,3.60
2018-12-15T10:11:42.541Z,3.60
2018-12-15T10:14:11.155Z,3.50
2018-12-15T10:27:24.679Z,3.80
2018-12-15T10:34:19.805Z,3.40
2018-12-15T10:37:12.326Z,3.10
2018-12-15T10:43:45.814Z,3.30
2018-12-15T10:46:57.745Z,3.50
2018-12-15T10:49:42.020Z,3.60
2018-12-15T10:52:15.459Z,3.70
2018-12-15T10:54:48.030Z,3.80
2018-12-15T10:57:16.335Z,3.80
2018-12-15T11:00:45.169Z,3.90
2018-12-15T11:03:16.455Z,4.00
2018-12-15T11:05:50.752Z,3.90
2018-12-15T11:08:30.217Z,3.70
2018-12-15T11:11:00.567Z,3.60
2018-12-15T11:13:45.689Z,3.70
2018-12-15T11:16:15.885Z,3.80
2018-12-15T11:18:44.129Z,3.80
2018-12-15T11:21:12.290Z,3.90
2018-12-15T11:23:44.352Z,3.90
2018-12-15T11:26:12.542Z,4.20
2018-12-15T11:28:40.733Z,4.10
2018-12-15T11:34:56.025Z,4.00
2018-12-15T11:40:58.049Z,4.20
2018-12-15T11:43:52.704Z,4.30
2018-12-15T11:47:12.688Z,4.20
2018-12-15T11:50:14.870Z,4.00
2018-12-15T11:52:49.663Z,3.60
2018-12-15T11:58:58.884Z,3.50
2018-12-15T12:01:33.184Z,3.60
2018-12-15T12:04:18.579Z,3.50
2018-12-15T12:06:58.018Z,3.70
2018-12-15T12:09:37.087Z,3.90
2018-12-15T12:12:05.317Z,4.00
2018-12-15T12:14:40.630Z,4.00
2018-12-15T12:17:17.737Z,4.00
2018-12-15T12:19:54.821Z,3.90
2018-12-15T12:22:23.334Z,3.70
2018-12-15T12:24:57.898Z,3.80
2018-12-15T12:27:26.136Z,3.80
2018-12-15T12:30:01.079Z,3.70
2018-12-15T12:32:29.439Z,3.70
2018-12-15T12:34:57.649Z,3.80
2018-12-15T12:44:35.597Z,3.70
2018-12-15T12:47:30.278Z,3.70
2018-12-15T12:50:16.969Z,3.80
2018-12-15T12:52:45.170Z,3.90
2018-12-15T12:55:19.751Z,3.80
2018-12-15T13:01:29.196Z,3.60
2018-12-15T13:04:03.308Z,3.60
2018-12-15T13:06:35.088Z,3.60
2018-12-15T13:09:11.361Z,3.80
2018-12-15T13:11:41.644Z,3.90
2018-12-15T13:14:10.883Z,3.90
2018-12-15T13:16:42.558Z,3.90
2018-12-15T13:19:11.827Z,3.80
2018-12-15T13:21:49.217Z,4.00
2018-12-15T13:24:26.044Z,3.70
2018-12-15T13:26:59.202Z,3.60
2018-12-15T13:29:25.488Z,3.70
2018-12-15T13:32:03.177Z,3.70
2018-12-15T13:34:37.623Z,3.80
2018-12-15T13:37:06.870Z,3.80
2018-12-15T13:39:35.794Z,3.70
2018-12-15T13:42:06.053Z,3.70
2018-12-15T13:44:34.245Z,3.80
2018-12-15T13:47:03.547Z,3.90
2018-12-15T13:49:35.796Z,3.90
2018-12-15T13:52:13.182Z,3.80
2018-12-15T13:54:48.822Z,3.70
2018-12-15T13:57:25.466Z,3.60
2018-12-15T13:59:53.712Z,3.30
2018-12-15T14:02:23.927Z,3.40
2018-12-15T14:04:52.107Z,3.60
2018-12-15T14:07:22.484Z,3.80
2018-12-15T14:10:13.712Z,3.80
2018-12-15T14:12:49.397Z,3.80
2018-12-15T14:15:32.295Z,3.90
2018-12-15T14:18:16.741Z,3.90
2018-12-15T14:20:47.944Z,3.60
2018-12-15T14:23:49.357Z,3.50
2018-12-15T14:26:28.797Z,3.50
2018-12-15T14:28:58.299Z,3.60
2018-12-15T14:32:03.691Z,3.40
2018-12-15T14:35:02.500Z,3.40
2018-12-15T14:38:04.571Z,3.50
2018-12-15T14:40:46.124Z,3.60
2018-12-15T14:43:14.450Z,3.60
2018-12-15T14:45:42.851Z,3.50
2018-12-15T14:48:15.448Z,3.40
2018-12-15T14:50:43.656Z,3.40
2018-12-15T14:53:13.901Z,3.50
2018-12-15T14:55:47.935Z,3.30
2018-12-15T14:58:19.580Z,2.90
2018-12-15T15:00:51.502Z,2.80
2018-12-15T15:03:24.159Z,2.80
2018-12-15T15:05:52.676Z,2.90
2018-12-15T15:08:22.276Z,2.80
2018-12-15T15:11:00.495Z,2.90
2018-12-15T15:13:34.607Z,2.90
2018-12-15T15:16:15.140Z,2.80
2018-12-15T15:18:49.242Z,2.80
2018-12-15T15:21:17.598Z,2.80
2018-12-15T15:23:45.773Z,2.90
2018-12-15T15:26:13.973Z,3.00
2018-12-15T15:28:42.575Z,2.90
2018-12-15T15:31:16.123Z,2.80
2018-12-15T15:33:44.342Z,2.90
2018-12-15T15:36:13.544Z,3.00
2018-12-15T15:38:42.982Z,2.90
2018-12-15T15:41:11.179Z,2.80
2018-12-15T15:43:41.456Z,2.70
2018-12-15T15:46:09.767Z,2.60
2018-12-15T15:48:38.203Z,2.70
2018-12-15T15:51:07.505Z,2.80
2018-12-15T15:53:35.800Z,2.70
2018-12-15T15:56:11.341Z,2.70
2018-12-15T15:58:39.621Z,2.90
2018-12-15T16:01:07.898Z,3.10
2018-12-15T16:03:37.116Z,3.10
2018-12-15T16:06:06.451Z,2.90
2018-12-15T16:08:47.700Z,2.90
2018-12-15T16:11:34.000Z,2.90
2018-12-15T16:14:15.280Z,2.80
2018-12-15T16:16:48.038Z,2.90
2018-12-15T16:19:58.705Z,3.10
2018-12-15T16:22:46.669Z,3.30
2018-12-15T16:28:48.751Z,3.00
2018-12-15T16:31:25.940Z,2.90
2018-12-15T16:33:54.103Z,3.00
2018-12-15T16:36:28.254Z,3.10
2018-12-15T16:39:27.179Z,3.20
2018-12-15T16:42:09.171Z,3.30
2018-12-15T16:44:40.185Z,3.20
2018-12-15T16:47:13.684Z,3.30
2018-12-15T16:49:41.881Z,3.30
2018-12-15T16:52:10.130Z,3.50
2018-12-15T16:54:41.519Z,3.60
2018-12-15T16:57:10.792Z,3.20
2018-12-15T16:59:39.074Z,3.20
2018-12-15T17:02:07.317Z,3.00
2018-12-15T17:04:36.529Z,2.70
2018-12-15T17:07:06.779Z,2.50
2018-12-15T17:09:36.008Z,2.40
2018-12-15T17:12:04.576Z,2.30
2018-12-15T17:14:32.884Z,2.40
2018-12-15T17:17:01.049Z,2.50
2018-12-15T17:19:29.221Z,2.40
2018-12-15T17:21:58.407Z,2.70
2018-12-15T17:24:26.630Z,2.90
2018-12-15T17:26:55.054Z,3.00
2018-12-15T17:29:23.291Z,3.10
2018-12-15T17:31:51.521Z,2.90
2018-12-15T17:34:19.813Z,2.70
2018-12-15T17:36:58.711Z,2.60
2018-12-15T17:39:26.890Z,2.80
2018-12-15T17:41:55.087Z,2.80
2018-12-15T17:44:24.257Z,2.80
2018-12-15T17:46:52.498Z,2.70
2018-12-15T17:49:20.710Z,2.70
2018-12-15T17:51:49.009Z,2.90
2018-12-15T17:54:17.476Z,2.80
2018-12-15T17:56:47.051Z,2.70
2018-12-15T17:59:15.277Z,2.60
2018-12-15T18:01:43.666Z,2.80
2018-12-15T18:04:12.154Z,2.80
2018-12-15T18:06:44.386Z,2.90
2018-12-15T18:09:22.674Z,2.90
2018-12-15T18:11:50.870Z,2.90
2018-12-15T18:14:19.045Z,2.90
2018-12-15T18:16:52.342Z,2.80
2018-12-15T18:19:20.514Z,2.70
2018-12-15T18:21:48.756Z,2.40
2018-12-15T18:24:16.989Z,2.00
2018-12-15T18:26:46.193Z,1.80
2018-12-15T18:29:14.409Z,1.90
2018-12-15T18:31:49.670Z,1.80
2018-12-15T18:34:18.934Z,2.00
2018-12-15T18:36:53.185Z,2.20
2018-12-15T18:39:22.486Z,2.00
2018-12-15T18:41:50.715Z,2.10
2018-12-15T18:44:18.974Z,2.00
2018-12-15T18:47:08.900Z,1.90
2018-12-15T18:49:37.097Z,1.80
2018-12-15T18:52:07.387Z,1.70
2018-12-15T18:54:35.643Z,1.90
2018-12-15T18:57:04.146Z,2.10
2018-12-15T18:59:32.355Z,2.20
2018-12-15T19:02:23.772Z,2.20
2018-12-15T19:05:08.970Z,2.00
2018-12-15T19:07:40.679Z,1.90
2018-12-15T19:10:09.899Z,2.00
2018-12-15T19:12:44.107Z,1.90
2018-12-15T19:15:12.354Z,1.90
2018-12-15T19:17:43.934Z,1.90
2018-12-15T19:20:15.881Z,1.90
2018-12-15T19:22:44.053Z,2.10
2018-12-15T19:25:12.322Z,2.10
2018-12-15T19:27:40.494Z,2.10
2018-12-15T19:30:08.675Z,2.30
2018-12-15T19:32:36.841Z,2.40
2018-12-15T19:35:06.099Z,2.40
2018-12-15T19:37:34.367Z,2.10
2018-12-15T19:40:02.494Z,2.10
2018-12-15T19:42:30.684Z,1.90
2018-12-15T19:44:58.846Z,1.70
2018-12-15T19:47:27.064Z,1.80
2018-12-15T19:49:55.617Z,1.90
2018-12-15T19:52:24.064Z,2.10
2018-12-15T19:54:52.298Z,2.20
2018-12-15T19:57:22.968Z,2.30
2018-12-15T19:59:51.229Z,2.60
2018-12-15T20:02:20.246Z,2.60
2018-12-15T20:04:49.353Z,2.40
2018-12-15T20:07:17.541Z,2.30
2018-12-15T20:09:45.720Z,2.20
2018-12-15T20:12:13.928Z,2.10
2018-12-15T20:14:42.214Z,2.10
2018-12-15T20:17:10.764Z,2.30
2018-12-15T20:19:40.178Z,2.20
2018-12-15T20:22:16.327Z,2.20
2018-12-15T20:24:44.557Z,2.10
2018-12-15T20:27:12.811Z,1.90
2018-12-15T20:29:44.195Z,1.70
2018-12-15T20:32:13.419Z,1.50
2018-12-15T20:34:41.653Z,1.50
2018-12-15T20:37:10.068Z,1.50
2018-12-15T20:39:38.223Z,1.40
2018-12-15T20:42:08.486Z,1.50
2018-12-15T20:44:41.713Z,1.60
2018-12-15T20:47:06.112Z,1.40
2018-12-15T20:49:34.380Z,1.50
2018-12-15T20:52:03.661Z,1.50
2018-12-15T20:54:31.863Z,1.70
2018-12-15T20:57:00.378Z,1.60
2018-12-15T20:59:34.262Z,1.70
2018-12-15T21:02:03.466Z,1.70
2018-12-15T21:04:34.714Z,1.90
2018-12-15T21:07:03.917Z,2.10
2018-12-15T21:09:41.381Z,2.10
2018-12-15T21:12:11.911Z,2.20
2018-12-15T21:14:40.157Z,2.20
2018-12-15T21:17:09.355Z,2.00
2018-12-15T21:19:37.564Z,1.80
2018-12-15T21:22:05.805Z,1.80
2018-12-15T21:24:34.084Z,1.70
2018-12-15T21:27:02.600Z,1.90
2018-12-15T21:29:30.782Z,2.10
2018-12-15T21:31:58.983Z,2.10
2018-12-15T21:34:27.233Z,2.00
2018-12-15T21:36:55.624Z,2.00
2018-12-15T21:39:23.890Z,2.10
2018-12-15T21:41:52.091Z,2.10
2018-12-15T21:44:20.328Z,1.90
2018-12-15T21:46:48.511Z,2.00
2018-12-15T21:49:16.680Z,2.10
2018-12-15T21:51:44.829Z,2.20
2018-12-15T21:54:13.085Z,2.20
2018-12-15T21:56:41.290Z,2.10
2018-12-15T21:59:10.394Z,2.10
2018-12-15T22:01:39.597Z,2.10
2018-12-15T22:04:07.754Z,1.80
2018-12-15T22:06:35.920Z,1.40
2018-12-15T22:09:05.885Z,1.20
2018-12-15T22:11:39.944Z,1.10
2018-12-15T22:14:08.169Z,1.20
2018-12-15T22:16:36.421Z,1.30
2018-12-15T22:19:05.616Z,1.20
2018-12-15T22:21:33.764Z,1.30
2018-12-15T22:24:01.952Z,1.30
2018-12-15T22:26:32.409Z,1.50
2018-12-15T22:29:00.746Z,1.50
2018-12-15T22:31:28.924Z,1.50
2018-12-15T22:33:57.099Z,1.50
2018-12-15T22:36:25.658Z,1.60
2018-12-15T22:38:53.854Z,1.80
2018-12-15T22:41:22.038Z,1.70
2018-12-15T22:43:50.322Z,1.70
2018-12-15T22:46:19.502Z,1.80
2018-12-15T22:48:48.076Z,1.80
2018-12-15T22:51:16.266Z,1.70
2018-12-15T22:53:44.432Z,1.70
2018-12-15T22:56:12.890Z,1.50
2018-12-15T22:58:41.066Z,1.30
2018-12-15T23:01:13.118Z,1.20
2018-12-15T23:03:41.362Z,1.20
2018-12-15T23:06:09.543Z,1.30
2018-12-15T23:08:37.816Z,1.30
2018-12-15T23:11:06.046Z,1.30
2018-12-15T23:13:34.217Z,1.50
2018-12-15T23:16:02.752Z,1.70
2018-12-15T23:18:31.253Z,1.60
2018-12-15T23:20:59.461Z,1.40
2018-12-15T23:23:27.685Z,1.50
2018-12-15T23:25:56.088Z,1.60
2018-12-15T23:28:24.596Z,1.60
2018-12-15T23:30:52.837Z,1.50
2018-12-15T23:33:21.965Z,1.60
2018-12-15T23:35:50.214Z,1.50
2018-12-15T23:38:19.455Z,1.50
2018-12-15T23:40:54.717Z,1.50
2018-12-15T23:43:23.424Z,1.30
2018-12-15T23:45:51.768Z,1.30
2018-12-15T23:48:19.942Z,1.60
2018-12-15T23:50:48.110Z,1.60
2018-12-15T23:53:16.278Z,1.70
2018-12-15T23:55:44.827Z,1.60
2018-12-15T23:58:32.410Z,1.70
